createdAt,value
2018-12-19T00:02:35.225Z,11.70
2018-12-19T00:05:12.236Z,10.77
2018-12-19T00:07:50.175Z,11.73
2018-12-19T00:10:27.226Z,11.48
2018-12-19T00:13:05.509Z,12.43
2018-12-19T00:15:42.157Z,9.50
2018-12-19T00:18:21.541Z,13.48
2018-12-19T00:20:58.197Z,9.37
2018-12-19T00:23:35.297Z,9.63
2018-12-19T00:26:15.233Z,13.60
2018-12-19T00:28:52.674Z,11.97
2018-12-19T00:31:29.734Z,8.80
2018-12-19T00:34:07.654Z,10.25
2018-12-19T00:36:46.939Z,9.33
2018-12-19T00:39:23.394Z,10.37
2018-12-19T00:42:01.778Z,11.00
2018-12-19T00:44:41.975Z,11.27
2018-12-19T00:47:19.193Z,9.93
2018-12-19T00:49:58.393Z,10.87
2018-12-19T00:52:38.285Z,9.10
2018-12-19T00:55:16.303Z,10.00
2018-12-19T00:57:55.001Z,9.43
2018-12-19T01:00:30.541Z,10.23
2018-12-19T01:03:07.837Z,7.93
2018-12-19T01:05:45.054Z,12.55
2018-12-19T01:08:44.749Z,8.38
2018-12-19T01:11:20.956Z,13.20
2018-12-19T01:13:58.807Z,9.57
2018-12-19T01:16:35.966Z,8.60
2018-12-19T01:19:14.195Z,8.87
2018-12-19T01:21:51.257Z,10.33
2018-12-19T01:24:28.433Z,8.25
2018-12-19T01:29:57.232Z,7.67
2018-12-19T01:32:34.469Z,8.80
2018-12-19T01:35:11.170Z,7.50
2018-12-19T01:37:50.162Z,8.57
2018-12-19T01:40:29.170Z,9.10
2018-12-19T01:45:56.537Z,8.03
2018-12-19T01:48:34.474Z,7.60
2018-12-19T01:51:14.528Z,11.57
2018-12-19T01:53:49.391Z,9.43
2018-12-19T01:56:27.623Z,8.60
2018-12-19T01:59:06.957Z,8.87
2018-12-19T02:01:44.613Z,9.73
2018-12-19T02:04:22.945Z,8.83
2018-12-19T02:07:01.818Z,7.83
2018-12-19T02:09:40.050Z,7.67
2018-12-19T02:12:20.046Z,5.90
2018-12-19T02:15:00.358Z,12.13
2018-12-19T02:17:38.739Z,7.07
2018-12-19T02:20:17.984Z,9.97
2018-12-19T02:22:56.109Z,8.53
2018-12-19T02:25:38.010Z,8.70
2018-12-19T02:28:17.141Z,7.53
2018-12-19T02:30:55.060Z,8.00
2018-12-19T02:33:34.143Z,8.30
2018-12-19T02:36:12.374Z,7.27
2018-12-19T02:38:49.976Z,8.43
2018-12-19T02:41:28.117Z,9.33
2018-12-19T02:44:06.272Z,9.07
2018-12-19T02:46:44.426Z,7.60
2018-12-19T02:49:22.622Z,8.00
2018-12-19T02:52:02.746Z,8.93
2018-12-19T02:54:40.891Z,8.53
2018-12-19T02:57:20.295Z,9.08
2018-12-19T02:59:58.079Z,7.50
2018-12-19T03:02:37.607Z,8.03
2018-12-19T03:05:14.020Z,9.73
2018-12-19T03:07:50.853Z,11.37
2018-12-19T03:10:30.031Z,7.60
2018-12-19T03:13:07.649Z,8.07
2018-12-19T03:15:44.969Z,7.93
2018-12-19T03:18:26.832Z,7.25
2018-12-19T03:21:06.002Z,8.13
2018-12-19T03:23:46.061Z,8.03
2018-12-19T03:26:24.603Z,9.10
2018-12-19T03:29:02.506Z,6.20
2018-12-19T03:31:44.013Z,9.87
2018-12-19T03:34:21.706Z,9.07
2018-12-19T03:37:19.802Z,6.97
2018-12-19T03:39:58.968Z,7.47
2018-12-19T03:42:38.417Z,9.60
2018-12-19T03:45:16.730Z,7.97
2018-12-19T03:47:56.393Z,7.93
2018-12-19T03:50:35.457Z,8.70
2018-12-19T03:53:16.865Z,8.00
2018-12-19T03:55:55.407Z,7.10
2018-12-19T03:58:34.639Z,7.60
2018-12-19T04:01:13.559Z,8.40
2018-12-19T04:03:52.646Z,8.37
2018-12-19T04:06:30.866Z,7.25
2018-12-19T04:09:09.452Z,8.33
2018-12-19T04:11:45.945Z,9.43
2018-12-19T04:14:24.493Z,9.30
2018-12-19T04:17:01.112Z,8.70
2018-12-19T04:19:38.391Z,9.73
2018-12-19T04:22:18.342Z,9.73
2018-12-19T04:24:57.557Z,8.00
2018-12-19T04:27:40.391Z,9.73
2018-12-19T04:30:20.522Z,8.07
2018-12-19T04:32:56.943Z,12.90
2018-12-19T04:35:34.520Z,7.60
2018-12-19T04:38:13.224Z,9.50
2018-12-19T04:40:50.950Z,8.97
2018-12-19T04:43:28.054Z,8.13
2018-12-19T04:46:04.128Z,9.10
2018-12-19T04:48:39.822Z,8.37
2018-12-19T04:51:15.711Z,8.45
2018-12-19T04:53:51.864Z,8.63
2018-12-19T04:56:30.083Z,8.08
2018-12-19T04:59:09.777Z,8.67
2018-12-19T05:01:46.981Z,10.00
2018-12-19T05:04:22.980Z,8.68
2018-12-19T05:06:57.886Z,9.97
2018-12-19T05:09:36.167Z,8.90
2018-12-19T05:12:16.186Z,9.00
2018-12-19T05:14:53.013Z,9.67
2018-12-19T05:17:29.227Z,8.77
2018-12-19T05:20:05.017Z,9.03
2018-12-19T05:22:42.832Z,9.70
2018-12-19T05:25:23.211Z,11.40
2018-12-19T05:27:59.904Z,9.80
2018-12-19T05:30:35.462Z,10.20
2018-12-19T05:33:11.147Z,8.37
2018-12-19T05:35:47.052Z,9.67
2018-12-19T05:38:23.573Z,9.13
2018-12-19T05:40:59.419Z,8.47
2018-12-19T05:43:37.413Z,10.73
2018-12-19T05:46:13.847Z,7.93
2018-12-19T05:48:48.982Z,9.80
2018-12-19T05:51:28.385Z,13.20
2018-12-19T05:54:04.451Z,8.80
2018-12-19T05:56:40.392Z,9.47
2018-12-19T05:59:18.185Z,11.50
2018-12-19T06:01:55.243Z,10.70
2018-12-19T06:04:31.757Z,9.77
2018-12-19T06:07:08.247Z,10.70
2018-12-19T06:09:46.772Z,11.10
2018-12-19T06:12:22.389Z,10.63
2018-12-19T06:14:57.445Z,10.47
2018-12-19T06:17:33.562Z,10.27
2018-12-19T06:22:49.707Z,9.80
2018-12-19T06:25:25.624Z,10.65
2018-12-19T06:28:01.526Z,10.73
2018-12-19T06:30:37.713Z,11.83
2018-12-19T06:33:13.457Z,9.30
2018-12-19T06:35:48.852Z,11.70
2018-12-19T06:38:25.681Z,13.48
2018-12-19T06:41:03.069Z,13.70
2018-12-19T06:43:41.824Z,13.47
2018-12-19T06:46:17.148Z,13.07
2018-12-19T06:48:53.689Z,11.47
2018-12-19T06:51:29.698Z,11.18
2018-12-19T06:54:05.505Z,11.77
2018-12-19T06:56:42.396Z,12.10
2018-12-19T06:59:19.395Z,13.53
2018-12-19T07:01:56.793Z,16.33
2018-12-19T07:04:33.013Z,16.00
2018-12-19T07:07:11.096Z,15.40
2018-12-19T07:09:48.460Z,15.57
2018-12-19T07:12:55.384Z,15.83
2018-12-19T07:15:33.082Z,14.63
2018-12-19T07:18:08.420Z,15.50
2018-12-19T07:20:44.737Z,16.93
2018-12-19T07:23:20.512Z,16.85
2018-12-19T07:25:56.591Z,16.83
2018-12-19T07:28:32.676Z,13.95
2018-12-19T07:31:07.516Z,15.83
2018-12-19T07:33:46.251Z,17.10
2018-12-19T07:36:24.024Z,14.93
2018-12-19T07:39:01.898Z,16.00
2018-12-19T07:41:38.817Z,17.42
2018-12-19T07:44:17.467Z,18.53
2018-12-19T07:46:58.443Z,18.03
2018-12-19T07:49:36.321Z,16.07
2018-12-19T07:52:16.666Z,16.93
2018-12-19T07:54:55.665Z,18.82
2018-12-19T07:57:32.681Z,18.10
2018-12-19T08:00:11.084Z,19.93
2018-12-19T08:02:49.193Z,18.80
2018-12-19T08:05:26.518Z,15.55
2018-12-19T08:08:06.919Z,18.63
2018-12-19T08:10:52.019Z,18.37
2018-12-19T08:13:26.320Z,17.10
2018-12-19T08:16:03.196Z,18.60
2018-12-19T08:18:40.220Z,22.50
2018-12-19T08:21:18.503Z,20.27
2018-12-19T08:23:54.269Z,22.13
2018-12-19T08:26:29.501Z,22.03
2018-12-19T08:29:09.519Z,22.03
2018-12-19T08:31:45.502Z,25.77
2018-12-19T08:34:21.994Z,32.48
2018-12-19T08:36:58.882Z,25.72
2018-12-19T08:39:36.381Z,29.97
2018-12-19T08:42:13.456Z,29.60
2018-12-19T08:47:44.970Z,28.70
2018-12-19T08:50:26.192Z,28.65
2018-12-19T08:53:04.281Z,33.07
2018-12-19T08:55:43.474Z,31.27
2018-12-19T08:58:18.737Z,34.50
2018-12-19T09:00:55.237Z,30.40
2018-12-19T09:03:35.460Z,32.57
2018-12-19T09:06:13.378Z,32.00
2018-12-19T09:08:48.311Z,30.87
2018-12-19T09:11:27.086Z,28.63
2018-12-19T09:14:01.973Z,32.20
2018-12-19T09:16:38.177Z,29.37
2018-12-19T09:19:13.987Z,31.73
2018-12-19T09:24:32.713Z,33.77
2018-12-19T09:27:08.261Z,34.23
2018-12-19T09:29:45.793Z,38.47
2018-12-19T09:32:22.502Z,31.50
2018-12-19T09:34:59.962Z,34.13
2018-12-19T09:37:37.553Z,31.17
2018-12-19T09:40:17.242Z,34.27
2018-12-19T09:42:58.369Z,30.07
2018-12-19T09:45:36.701Z,35.00
2018-12-19T09:48:13.623Z,31.10
2018-12-19T09:50:48.431Z,37.57
2018-12-19T09:53:26.934Z,34.20
2018-12-19T09:56:05.300Z,31.93
2018-12-19T09:58:44.017Z,32.13
2018-12-19T10:01:21.989Z,33.40
2018-12-19T10:04:03.666Z,34.20
2018-12-19T10:06:42.620Z,33.97
2018-12-19T10:09:19.992Z,31.30
2018-12-19T10:11:59.098Z,35.40
2018-12-19T10:14:34.292Z,32.13
2018-12-19T10:17:12.838Z,34.77
2018-12-19T10:19:51.801Z,35.63
2018-12-19T10:22:31.373Z,35.30
2018-12-19T10:25:12.633Z,32.07
2018-12-19T10:27:49.442Z,36.67
2018-12-19T10:30:26.599Z,33.63
2018-12-19T10:33:04.550Z,33.33
2018-12-19T10:35:42.015Z,34.70
2018-12-19T10:38:17.646Z,34.53
2018-12-19T10:40:53.193Z,32.37
2018-12-19T10:43:30.807Z,32.60
2018-12-19T10:46:09.308Z,35.60
2018-12-19T10:48:47.090Z,34.03
2018-12-19T10:51:27.345Z,35.17
2018-12-19T10:54:06.077Z,34.83
2018-12-19T10:56:41.477Z,36.47
2018-12-19T10:59:17.837Z,36.00
2018-12-19T11:01:55.767Z,37.57
2018-12-19T11:04:32.133Z,39.90
2018-12-19T11:07:11.511Z,38.73
2018-12-19T11:09:48.618Z,33.20
2018-12-19T11:12:24.080Z,35.70
2018-12-19T11:14:59.531Z,35.97
2018-12-19T11:17:37.766Z,39.20
2018-12-19T11:20:17.583Z,38.20
2018-12-19T11:22:54.963Z,36.87
2018-12-19T11:25:32.295Z,37.10
2018-12-19T11:28:10.439Z,37.67
2018-12-19T11:30:47.947Z,40.00
2018-12-19T11:33:29.033Z,41.07
2018-12-19T11:36:10.893Z,40.00
2018-12-19T11:38:48.406Z,40.40
2018-12-19T11:41:27.246Z,44.03
2018-12-19T11:44:03.187Z,44.13
2018-12-19T11:46:39.586Z,40.17
2018-12-19T11:49:15.534Z,39.92
2018-12-19T11:51:55.383Z,39.60
2018-12-19T11:54:36.039Z,41.43
2018-12-19T11:57:14.268Z,40.03
2018-12-19T11:59:50.410Z,39.93
2018-12-19T12:02:25.097Z,40.03
2018-12-19T12:05:02.444Z,42.80
2018-12-19T12:07:37.403Z,38.67
2018-12-19T12:10:12.941Z,36.27
2018-12-19T12:12:49.199Z,35.60
2018-12-19T12:15:24.442Z,40.48
2018-12-19T12:18:00.991Z,38.07
2018-12-19T12:20:38.430Z,38.43
2018-12-19T12:23:14.292Z,32.53
2018-12-19T12:25:48.608Z,31.20
2018-12-19T12:28:25.462Z,34.27
2018-12-19T12:33:51.413Z,33.80
2018-12-19T12:36:28.599Z,32.75
2018-12-19T12:39:04.470Z,29.37
2018-12-19T12:41:41.175Z,30.83
2018-12-19T12:44:15.249Z,30.68
2018-12-19T12:46:52.376Z,28.73
2018-12-19T12:49:32.601Z,29.63
2018-12-19T12:52:10.627Z,28.20
2018-12-19T12:54:48.246Z,31.20
2018-12-19T12:57:27.030Z,30.15
2018-12-19T13:00:04.716Z,24.67
2018-12-19T13:02:44.050Z,23.83
2018-12-19T13:05:24.751Z,22.37
2018-12-19T13:08:02.817Z,24.53
2018-12-19T13:10:40.874Z,21.00
2018-12-19T13:13:19.507Z,23.92
2018-12-19T13:15:56.232Z,20.67
2018-12-19T13:18:36.806Z,21.73
2018-12-19T13:21:16.096Z,21.47
2018-12-19T13:23:55.335Z,20.60
2018-12-19T13:26:32.691Z,20.17
2018-12-19T13:29:13.296Z,22.13
2018-12-19T13:31:51.773Z,19.77
2018-12-19T13:34:28.959Z,21.87
2018-12-19T13:37:08.450Z,21.73
2018-12-19T13:39:49.383Z,24.40
2018-12-19T13:42:26.169Z,22.13
2018-12-19T13:45:03.559Z,22.70
2018-12-19T13:47:39.983Z,22.47
2018-12-19T13:50:17.920Z,23.97
2018-12-19T13:52:55.039Z,21.67
2018-12-19T13:55:32.525Z,20.30
2018-12-19T13:58:09.285Z,19.70
2018-12-19T14:00:46.549Z,19.80
2018-12-19T14:03:23.742Z,24.93
2018-12-19T14:06:01.337Z,22.47
2018-12-19T14:08:39.772Z,19.60
2018-12-19T14:11:19.102Z,20.47
2018-12-19T14:13:57.741Z,20.20
2018-12-19T14:16:32.283Z,19.17
2018-12-19T14:19:16.300Z,23.33
2018-12-19T14:21:59.051Z,19.73
2018-12-19T14:27:22.140Z,20.33
2018-12-19T14:29:59.009Z,17.73
2018-12-19T14:32:38.752Z,18.93
2018-12-19T14:35:17.773Z,20.53
2018-12-19T14:37:58.660Z,18.87
2018-12-19T14:40:38.063Z,21.77
2018-12-19T14:46:31.769Z,18.73
2018-12-19T14:49:14.145Z,24.73
2018-12-19T14:51:51.438Z,22.27
2018-12-19T14:54:36.821Z,20.23
2018-12-19T14:57:15.342Z,18.48
2018-12-19T14:59:52.146Z,17.47
2018-12-19T15:02:32.255Z,22.43
2018-12-19T15:05:10.075Z,20.20
2018-12-19T15:07:47.871Z,17.00
2018-12-19T15:10:23.714Z,19.10
2018-12-19T15:13:03.757Z,20.62
2018-12-19T15:15:36.550Z,18.07
2018-12-19T15:18:13.765Z,21.35
2018-12-19T15:20:51.559Z,17.07
2018-12-19T15:23:28.080Z,18.27
2018-12-19T15:26:07.510Z,17.60
2018-12-19T15:28:45.205Z,17.50
2018-12-19T15:31:23.542Z,19.60
2018-12-19T15:33:59.874Z,15.83
2018-12-19T15:39:30.422Z,17.47
2018-12-19T15:42:07.534Z,16.03
2018-12-19T15:44:46.260Z,19.03
2018-12-19T15:47:26.098Z,16.57
2018-12-19T15:50:07.324Z,20.73
2018-12-19T15:52:44.912Z,18.00
2018-12-19T15:55:22.284Z,18.73
2018-12-19T15:57:59.311Z,20.57
2018-12-19T16:00:35.515Z,18.57
2018-12-19T16:03:16.175Z,19.07
2018-12-19T16:05:53.891Z,18.40
2018-12-19T16:08:34.511Z,15.80
2018-12-19T16:11:09.898Z,21.80
2018-12-19T16:13:48.414Z,16.70
2018-12-19T16:16:24.062Z,18.87
2018-12-19T16:19:02.045Z,16.17
2018-12-19T16:21:43.222Z,16.57
2018-12-19T16:24:22.159Z,16.77
2018-12-19T16:26:57.785Z,16.47
2018-12-19T16:29:36.625Z,17.73
2018-12-19T16:32:16.022Z,17.05
2018-12-19T16:34:55.317Z,14.03
2018-12-19T16:37:32.187Z,13.23
2018-12-19T16:40:10.805Z,17.70
2018-12-19T16:42:47.911Z,16.63
2018-12-19T16:45:27.842Z,16.20
2018-12-19T16:50:55.718Z,15.57
2018-12-19T16:53:31.795Z,16.30
2018-12-19T16:56:10.162Z,18.20
2018-12-19T16:58:48.152Z,16.17
2018-12-19T17:06:35.267Z,16.60
2018-12-19T17:11:42.290Z,13.40
2018-12-19T17:14:19.697Z,13.03
2018-12-19T17:16:59.155Z,19.67
2018-12-19T17:22:18.944Z,12.17
2018-12-19T17:24:56.450Z,12.67
2018-12-19T17:30:23.010Z,12.33
2018-12-19T17:33:00.529Z,12.93
2018-12-19T17:35:36.512Z,11.93
2018-12-19T17:38:13.426Z,13.08
2018-12-19T17:40:50.844Z,10.73
2018-12-19T17:43:31.194Z,13.13
2018-12-19T17:46:08.224Z,16.43
2018-12-19T17:48:46.494Z,14.33
2018-12-19T17:51:24.294Z,14.85
2018-12-19T17:54:01.166Z,15.80
2018-12-19T17:59:22.851Z,17.93
2018-12-19T18:01:59.815Z,16.30
2018-12-19T18:04:37.047Z,17.93
2018-12-19T18:07:15.550Z,20.43
2018-12-19T18:09:52.569Z,18.27
2018-12-19T18:12:31.341Z,18.60
2018-12-19T18:17:55.807Z,18.43
2018-12-19T18:20:33.701Z,18.17
2018-12-19T18:23:11.795Z,18.93
2018-12-19T18:25:50.791Z,18.63
2018-12-19T18:28:29.329Z,18.37
2018-12-19T18:31:07.426Z,20.37
2018-12-19T18:33:45.628Z,19.37
2018-12-19T18:36:24.963Z,21.37
2018-12-19T18:39:02.705Z,18.80
2018-12-19T18:41:41.449Z,18.87
2018-12-19T18:44:21.838Z,19.73
2018-12-19T18:47:00.042Z,20.63
2018-12-19T18:49:37.578Z,21.47
2018-12-19T18:52:15.415Z,19.63
2018-12-19T18:54:55.410Z,23.27
2018-12-19T18:57:34.329Z,24.03
2018-12-19T19:00:14.979Z,18.97
2018-12-19T19:02:53.840Z,24.50
2018-12-19T19:05:31.891Z,20.10
2018-12-19T19:08:09.508Z,21.77
2018-12-19T19:10:46.420Z,23.07
2018-12-19T19:13:23.041Z,21.70
2018-12-19T19:15:59.546Z,20.87
2018-12-19T19:18:36.140Z,23.13
2018-12-19T19:21:13.153Z,23.22
2018-12-19T19:23:50.033Z,20.93
2018-12-19T19:26:30.968Z,24.32
2018-12-19T19:29:10.007Z,28.80
2018-12-19T19:31:47.707Z,26.90
2018-12-19T19:34:25.951Z,23.97
2018-12-19T19:37:04.173Z,23.57
2018-12-19T19:39:42.914Z,25.90
2018-12-19T19:42:20.268Z,20.25
2018-12-19T19:44:58.152Z,24.30
2018-12-19T19:47:36.079Z,22.98
2018-12-19T19:50:15.225Z,23.73
2018-12-19T19:55:35.292Z,23.60
2018-12-19T19:58:14.462Z,21.67
2018-12-19T20:00:52.582Z,20.57
2018-12-19T20:03:28.568Z,22.57
2018-12-19T20:06:04.489Z,24.57
2018-12-19T20:08:45.786Z,20.13
2018-12-19T20:11:23.474Z,21.93
2018-12-19T20:14:01.332Z,20.70
2018-12-19T20:16:44.424Z,20.37
2018-12-19T20:19:23.621Z,20.97
2018-12-19T20:22:01.683Z,19.43
2018-12-19T20:24:38.778Z,21.53
2018-12-19T20:27:16.356Z,22.03
2018-12-19T20:29:53.477Z,20.13
2018-12-19T20:32:30.082Z,14.87
2018-12-19T20:35:11.285Z,17.95
2018-12-19T20:37:49.819Z,21.83
2018-12-19T20:40:27.004Z,20.80
2018-12-19T20:43:07.074Z,18.47
2018-12-19T20:45:45.678Z,17.90
2018-12-19T20:48:23.646Z,18.27
2018-12-19T20:51:02.005Z,16.67
2018-12-19T20:53:42.678Z,14.75
2018-12-19T20:56:21.241Z,17.60
2018-12-19T20:58:59.591Z,12.73
2018-12-19T21:01:40.067Z,18.70
2018-12-19T21:04:18.171Z,15.03
2018-12-19T21:06:56.303Z,13.63
2018-12-19T21:09:35.269Z,13.70
2018-12-19T21:17:21.877Z,12.57
2018-12-19T21:20:00.055Z,18.40
2018-12-19T21:22:37.979Z,13.53
2018-12-19T21:25:15.821Z,15.77
2018-12-19T21:27:54.718Z,20.43
2018-12-19T21:30:32.345Z,11.73
2018-12-19T21:33:14.141Z,14.13
2018-12-19T21:35:53.172Z,12.30
2018-12-19T21:38:31.757Z,17.53
2018-12-19T21:41:09.193Z,16.00
2018-12-19T21:43:53.481Z,14.47
2018-12-19T21:46:27.580Z,15.83
2018-12-19T21:49:05.708Z,14.67
2018-12-19T21:51:44.693Z,16.03
2018-12-19T21:54:22.186Z,15.03
2018-12-19T21:57:00.428Z,16.83
2018-12-19T21:59:37.982Z,16.97
2018-12-19T22:02:16.026Z,15.00
2018-12-19T22:04:53.551Z,15.83
2018-12-19T22:07:31.794Z,16.93
2018-12-19T22:10:09.011Z,15.73
2018-12-19T22:12:47.691Z,16.47
2018-12-19T22:15:25.031Z,16.80
2018-12-19T22:18:04.574Z,17.33
2018-12-19T22:20:40.902Z,17.60
2018-12-19T22:23:19.065Z,16.00
2018-12-19T22:25:58.757Z,14.27
2018-12-19T22:31:37.266Z,21.10
2018-12-19T22:34:14.078Z,19.93
2018-12-19T22:36:50.022Z,18.27
2018-12-19T22:39:28.355Z,16.45
2018-12-19T22:42:07.910Z,19.27
2018-12-19T22:44:47.290Z,15.63
2018-12-19T22:47:24.715Z,16.77
2018-12-19T22:52:50.312Z,17.07
2018-12-19T22:55:29.980Z,21.50
2018-12-19T22:58:07.300Z,22.53
2018-12-19T23:00:54.204Z,17.10
2018-12-19T23:03:38.737Z,17.30
2018-12-19T23:06:17.887Z,18.40
2018-12-19T23:08:57.207Z,17.23
2018-12-19T23:11:36.106Z,19.37
2018-12-19T23:14:17.591Z,18.55
2018-12-19T23:16:56.259Z,22.00
2018-12-19T23:19:34.609Z,19.57
2018-12-19T23:22:15.788Z,20.37
2018-12-19T23:24:55.119Z,19.10
2018-12-19T23:27:35.796Z,17.10
2018-12-19T23:30:15.346Z,17.20
2018-12-19T23:32:54.804Z,22.47
2018-12-19T23:35:32.112Z,19.20
2018-12-19T23:38:10.433Z,21.77
2018-12-19T23:40:48.948Z,21.17
2018-12-19T23:48:38.762Z,19.13
2018-12-19T23:51:17.428Z,19.43
2018-12-19T23:53:56.076Z,24.60
2018-12-19T23:56:36.370Z,18.70
2018-12-19T23:59:18.300Z,23.30
